Time;durP1;ratioP1;P1;durP2;ratioP2;P2;SDS_P1;SDS_P2;PMS_P1;PMS_P2;Temp;Humidity;BMP_temperature;BMP_pressure;BME280_temperature;BME280_humidity;BME280_pressure;Samples;Min_cycle;Max_cycle;Signal;HPM_P1;HPM_P2
2022/05/17 00:01:52;;;;;;;;;9.00;8.00;;;;;19.79;40.03;98908.41;6042794;28;97471;-73
2022/05/17 00:04:55;;;;;;;;;9.80;8.80;;;;;19.61;40.58;98906.28;6043178;28;97492;-73
2022/05/17 00:07:59;;;;;;;;;9.00;9.00;;;;;19.62;40.54;98905.19;6043163;28;97483;-72
2022/05/17 00:11:06;;;;;;;;;8.00;8.00;;;;;19.61;40.58;98901.66;6043485;28;96526;-73
2022/05/17 00:14:09;;;;;;;;;7.80;7.00;;;;;19.59;40.52;98903.84;6043399;28;96571;-73
2022/05/17 00:17:12;;;;;;;;;8.00;7.00;;;;;19.59;40.52;98897.56;6033181;28;96492;-73
2022/05/17 00:20:17;;;;;;;;;7.00;7.00;;;;;19.60;40.61;98896.44;6010088;28;97793;-73
2022/05/17 00:23:20;;;;;;;;;7.00;7.00;;;;;19.57;40.24;98905.22;6051163;28;96478;-73
2022/05/17 00:26:25;;;;;;;;;9.60;7.60;;;;;19.55;40.61;98891.03;6025541;28;98587;-73
2022/05/17 00:29:29;;;;;;;;;8.00;7.00;;;;;19.50;40.31;98899.25;6043710;28;96661;-73
2022/05/17 00:32:32;;;;;;;;;8.00;8.00;;;;;19.42;40.48;98897.88;6042722;28;96413;-73
2022/05/17 00:35:36;;;;;;;;;7.00;6.20;;;;;19.16;41.38;98890.81;6028528;28;96645;-73
2022/05/17 00:38:41;;;;;;;;;7.33;7.00;;;;;19.27;40.87;98895.16;6022450;28;97142;-73
2022/05/17 00:41:45;;;;;;;;;7.00;6.00;;;;;19.28;40.95;98891.34;6043335;28;96440;-73
2022/05/17 00:44:49;;;;;;;;;7.00;6.00;;;;;19.17;40.92;98885.09;6042399;28;97002;-73
2022/05/17 00:48:04;;;;;;;;;7.80;6.80;;;;;19.27;40.48;98878.78;6025227;28;98720;-73
2022/05/17 00:51:07;;;;;;;;;8.00;8.00;;;;;19.27;40.59;98870.56;6042520;28;96676;-73
2022/05/17 00:54:14;;;;;;;;;8.00;8.00;;;;;19.02;40.51;98830.47;6042874;28;97065;-73
2022/05/17 00:57:27;;;;;;;;;8.00;7.80;;;;;19.18;41.02;98869.50;6025797;28;98544;-73
2022/05/17 01:00:37;;;;;;;;;7.25;7.25;;;;;19.24;40.62;98871.13;6027051;28;97422;-73
2022/05/17 01:03:47;;;;;;;;;8.00;7.00;;;;;19.19;40.71;98861.03;6042327;28;96785;-72
2022/05/17 01:07:01;;;;;;;;;7.00;7.00;;;;;19.23;40.39;98858.56;6006585;28;96755;-72
2022/05/17 01:10:05;;;;;;;;;7.00;7.00;;;;;19.20;40.53;98851.75;6042587;28;96663;-72
2022/05/17 01:16:32;;;;;;;;;8.60;8.00;;;;;19.15;40.46;98854.50;6029647;28;96837;-73
2022/05/17 01:19:40;;;;;;;;;10.40;8.00;;;;;19.27;40.13;98871.41;6044273;28;97512;-74
2022/05/17 01:22:44;;;;;;;;;9.40;8.20;;;;;19.25;40.42;98873.59;6031309;28;96761;-74
2022/05/17 01:25:48;;;;;;;;;9.00;8.60;;;;;19.16;40.68;98860.75;6029696;28;97968;-74
2022/05/17 01:28:51;;;;;;;;;10.00;9.00;;;;;19.04;40.86;98852.88;6029497;28;98571;-72
2022/05/17 01:31:55;;;;;;;;;7.20;6.20;;;;;18.80;41.37;98835.47;6029983;28;99138;-72
2022/05/17 01:34:58;;;;;;;;;9.00;8.00;;;;;18.99;40.96;98858.38;6045725;28;97448;-73
2022/05/17 01:38:03;;;;;;;;;8.50;8.00;;;;;18.98;40.90;98860.28;6043032;28;97580;-73
2022/05/17 01:41:07;;;;;;;;;8.00;8.00;;;;;18.98;41.29;98852.06;6045903;28;97043;-73
2022/05/17 01:44:11;;;;;;;;;7.00;7.00;;;;;19.13;41.02;98850.41;6032089;28;97454;-73
2022/05/17 01:47:14;;;;;;;;;9.00;8.50;;;;;19.11;41.22;98841.69;6046327;28;96396;-73
2022/05/17 01:50:18;;;;;;;;;7.60;7.60;;;;;19.03;41.07;98841.13;6013414;28;98772;-73
2022/05/17 01:53:24;;;;;;;;;10.00;7.00;;;;;19.10;41.00;98832.66;6028723;28;97180;-73
2022/05/17 01:56:27;;;;;;;;;8.00;8.00;;;;;18.97;41.17;98844.16;6053066;28;97364;-73
2022/05/17 01:59:32;;;;;;;;;9.00;9.00;;;;;18.85;41.50;98841.72;6064953;28;97494;-73
2022/05/17 02:02:36;;;;;;;;;9.00;8.00;;;;;18.81;41.64;98839.84;6028152;28;96618;-72
2022/05/17 02:05:40;;;;;;;;;9.00;8.00;;;;;18.75;41.87;98839.03;6052307;28;97955;-73
2022/05/17 02:08:45;;;;;;;;;8.00;8.00;;;;;18.73;41.72;98846.66;6016374;28;100554;-73
2022/05/17 02:11:48;;;;;;;;;6.60;6.60;;;;;18.65;41.91;98849.13;6029174;28;98496;-74
2022/05/17 02:14:51;;;;;;;;;8.25;8.00;;;;;18.57;42.11;98845.03;6046273;28;96439;-75
2022/05/17 02:17:55;;;;;;;;;9.00;8.00;;;;;18.47;42.12;98834.13;6028012;28;96972;-73
2022/05/17 02:20:58;;;;;;;;;8.00;7.00;;;;;18.42;42.06;98820.47;6028491;28;97108;-74
2022/05/17 02:24:04;;;;;;;;;9.00;8.00;;;;;18.47;42.40;98834.13;6037117;28;99771;-73
2022/05/17 02:27:07;;;;;;;;;8.60;8.00;;;;;18.47;42.38;98836.84;6045956;28;96523;-73
2022/05/17 02:30:13;;;;;;;;;10.00;8.00;;;;;18.44;42.28;98840.09;6044840;28;96708;-74
2022/05/17 02:33:18;;;;;;;;;8.40;7.00;;;;;18.43;42.30;98839.28;6045866;28;97548;-73
2022/05/17 02:36:21;;;;;;;;;8.80;8.00;;;;;18.41;42.50;98822.38;6029659;28;98138;-74
2022/05/17 02:39:26;;;;;;;;;8.00;7.60;;;;;18.31;42.73;98835.19;6044032;28;96544;-73
2022/05/17 02:42:29;;;;;;;;;8.00;6.80;;;;;18.27;42.82;98828.66;6030265;28;97042;-72
2022/05/17 02:45:34;;;;;;;;;9.00;8.60;;;;;18.29;42.80;98818.28;6044108;28;97824;-75
2022/05/17 02:48:37;;;;;;;;;10.00;9.00;;;;;18.21;43.32;98816.09;6033726;28;96792;-74
2022/05/17 02:51:41;;;;;;;;;8.00;7.00;;;;;18.26;43.16;98821.56;6027499;28;99575;-75
2022/05/17 02:54:47;;;;;;;;;11.20;10.60;;;;;18.29;43.36;98819.09;6044735;28;96437;-75
2022/05/17 02:57:50;;;;;;;;;12.00;10.75;;;;;18.36;43.03;98821.56;6027193;28;99523;-75
2022/05/17 03:00:53;;;;;;;;;9.00;9.00;;;;;18.38;43.20;98833.00;6038554;28;96783;-75
2022/05/17 03:03:57;;;;;;;;;10.80;8.80;;;;;18.24;43.35;98832.75;6035858;28;97349;-75
2022/05/17 03:07:00;;;;;;;;;9.00;9.00;;;;;18.23;43.47;98824.84;6043725;28;97468;-75
2022/05/17 03:10:06;;;;;;;;;12.40;9.60;;;;;18.22;43.35;98828.66;6027390;28;97499;-74
2022/05/17 03:13:11;;;;;;;;;9.00;9.00;;;;;17.96;43.65;98787.72;6045949;28;97752;-74
2022/05/17 03:16:15;;;;;;;;;9.00;8.60;;;;;18.24;43.46;98831.91;6026602;28;96805;-74
2022/05/17 03:19:19;;;;;;;;;9.00;8.00;;;;;18.19;43.59;98827.28;6040674;28;97325;-74
2022/05/17 03:22:23;;;;;;;;;11.40;9.60;;;;;17.98;43.92;98833.81;6025268;28;97360;-74
2022/05/17 03:25:28;;;;;;;;;9.40;9.40;;;;;18.07;43.68;98843.09;6026310;28;97176;-74
2022/05/17 03:28:31;;;;;;;;;10.00;9.00;;;;;18.07;43.70;98835.75;6043594;28;97149;-74
2022/05/17 03:31:35;;;;;;;;;8.00;7.60;;;;;17.97;43.66;98803.00;6048492;28;97449;-72
2022/05/17 03:34:39;;;;;;;;;10.00;8.00;;;;;18.20;43.60;98828.91;6041740;28;97157;-75
2022/05/17 03:37:42;;;;;;;;;10.00;10.00;;;;;18.24;43.35;98829.19;6040023;28;97433;-75
2022/05/17 03:40:47;;;;;;;;;10.60;9.00;;;;;18.29;43.33;98835.47;6044604;28;96746;-73
2022/05/17 03:43:50;;;;;;;;;10.00;10.00;;;;;18.28;43.53;98854.84;6032257;28;98087;-75
2022/05/17 03:46:54;;;;;;;;;10.00;9.00;;;;;18.36;43.52;98838.75;6041823;28;96700;-75
2022/05/17 03:49:57;;;;;;;;;14.75;12.75;;;;;18.34;43.54;98843.66;6026838;28;97460;-73
2022/05/17 03:53:01;;;;;;;;;9.00;9.00;;;;;18.40;43.62;98847.22;6026838;28;98756;-73
2022/05/17 03:56:06;;;;;;;;;10.00;9.00;;;;;18.46;43.37;98854.31;6042316;28;98419;-75
2022/05/17 03:59:09;;;;;;;;;10.60;10.00;;;;;18.54;43.13;98859.25;6025794;28;97226;-73
2022/05/17 04:02:15;;;;;;;;;10.40;9.00;;;;;18.60;43.13;98863.63;6041988;28;98209;-73
2022/05/17 04:05:19;;;;;;;;;9.40;9.00;;;;;18.60;42.74;98856.25;6038012;28;97154;-75
2022/05/17 04:08:23;;;;;;;;;11.40;11.00;;;;;18.70;42.88;98868.25;6042932;28;96876;-73
2022/05/17 04:11:29;;;;;;;;;10.00;8.40;;;;;18.75;42.89;98868.25;6025662;28;97196;-73
2022/05/17 04:14:32;;;;;;;;;10.50;9.50;;;;;18.88;42.84;98868.50;6025057;28;96857;-73
2022/05/17 04:17:35;;;;;;;;;10.00;9.00;;;;;18.97;42.80;98863.28;6022251;28;96984;-74
2022/05/17 04:20:39;;;;;;;;;9.60;8.20;;;;;19.08;42.82;98864.91;6036038;28;96911;-73
2022/05/17 04:23:42;;;;;;;;;11.00;10.00;;;;;19.10;42.40;98849.06;6030103;28;98920;-73
2022/05/17 04:26:47;;;;;;;;;9.00;8.00;;;;;19.35;42.14;98867.28;6042182;28;96663;-73
2022/05/17 04:29:51;;;;;;;;;9.00;9.00;;;;;19.41;41.80;98868.88;6024369;28;99520;-73
2022/05/17 04:32:55;;;;;;;;;9.00;9.00;;;;;19.30;41.53;98864.56;6044452;28;100048;-73
2022/05/17 04:35:58;;;;;;;;;8.00;8.00;;;;;19.41;41.69;98866.97;6065707;28;97481;-72
2022/05/17 04:39:02;;;;;;;;;9.60;9.60;;;;;19.43;41.43;98866.69;6047746;28;96617;-72
2022/05/17 04:42:08;;;;;;;;;10.00;9.00;;;;;19.42;41.50;98862.31;6024520;28;99661;-74
2022/05/17 04:45:14;;;;;;;;;9.00;8.60;;;;;19.41;41.52;98845.09;6042030;28;97699;-73
2022/05/17 04:48:18;;;;;;;;;9.00;8.60;;;;;19.58;41.45;98869.41;6026551;28;97096;-73
2022/05/17 04:51:22;;;;;;;;;9.00;8.00;;;;;19.18;41.52;98821.13;6024180;28;96741;-73
2022/05/17 04:54:25;;;;;;;;;12.00;9.00;;;;;19.57;41.49;98877.88;6041050;28;97005;-73
2022/05/17 04:57:30;;;;;;;;;10.00;9.00;;;;;19.59;41.42;98889.38;6030610;28;96822;-73
2022/05/17 05:00:33;;;;;;;;;10.00;10.00;;;;;19.53;41.50;98885.00;6041761;28;97340;-73
2022/05/17 05:03:37;;;;;;;;;9.40;7.00;;;;;19.59;41.38;98879.25;6038751;28;97437;-73
2022/05/17 05:06:40;;;;;;;;;7.00;7.00;;;;;19.49;41.46;98878.47;6043859;28;96796;-74
2022/05/17 05:09:43;;;;;;;;;9.20;8.40;;;;;19.56;41.07;98879.78;6042753;28;96942;-73
2022/05/17 05:12:50;;;;;;;;;9.40;9.00;;;;;19.68;41.12;98891.22;6041334;28;96429;-72
2022/05/17 05:15:55;;;;;;;;;10.80;9.00;;;;;19.76;41.07;98887.06;6024865;28;96566;-73
2022/05/17 05:18:59;;;;;;;;;9.00;9.00;;;;;19.88;40.90;98888.41;6039842;28;97083;-73
2022/05/17 05:22:03;;;;;;;;;11.40;10.40;;;;;19.99;40.74;98878.19;6042299;28;96576;-72
2022/05/17 05:25:07;;;;;;;;;9.00;8.40;;;;;20.07;40.85;98880.34;6042562;28;96983;-72
2022/05/17 05:28:12;;;;;;;;;11.00;9.00;;;;;20.10;40.64;98868.81;6025760;28;96671;-72
2022/05/17 05:31:17;;;;;;;;;9.40;9.00;;;;;20.38;40.46;98877.44;6044640;28;97151;-72
2022/05/17 05:34:21;;;;;;;;;10.00;9.00;;;;;20.44;39.76;98879.00;6041700;28;96589;-72
2022/05/17 05:37:25;;;;;;;;;10.00;9.00;;;;;20.77;40.15;98864.47;6045389;28;97465;-72
2022/05/17 05:40:30;;;;;;;;;11.00;10.00;;;;;21.06;40.07;98867.22;6066351;28;97167;-72
2022/05/17 05:43:35;;;;;;;;;11.20;10.00;;;;;21.24;38.78;98873.91;6065777;28;96607;-72
2022/05/17 05:46:38;;;;;;;;;10.00;9.00;;;;;21.33;38.50;98872.13;6065678;28;96994;-72
2022/05/17 05:49:42;;;;;;;;;10.20;9.00;;;;;21.68;38.58;98876.38;6015761;28;98663;-72
2022/05/17 05:52:51;;;;;;;;;9.00;9.00;;;;;21.87;37.69;98882.69;6018862;29;97454;-72
2022/05/17 05:56:01;;;;;;;;;9.00;8.00;;;;;21.96;37.18;98873.53;6030773;28;97522;-73
2022/05/17 05:59:06;;;;;;;;;10.00;9.00;;;;;22.30;37.62;98880.72;6067097;28;97560;-73
2022/05/17 06:02:11;;;;;;;;;10.00;10.00;;;;;22.34;36.69;98876.25;6067531;28;97262;-73
2022/05/17 06:05:15;;;;;;;;;9.00;8.33;;;;;21.80;36.32;98781.50;6046390;28;97087;-72
2022/05/17 06:08:19;;;;;;;;;11.00;10.00;;;;;22.60;35.87;98885.75;6046401;28;96389;-73
2022/05/17 06:11:22;;;;;;;;;8.40;7.60;;;;;22.66;36.65;98886.47;6027693;28;98693;-72
2022/05/17 06:14:27;;;;;;;;;10.00;9.00;;;;;22.87;36.38;98877.59;6030153;28;97410;-72
2022/05/17 06:17:31;;;;;;;;;8.00;7.00;;;;;23.11;35.96;98888.44;6005573;29;97298;-72
2022/05/17 06:20:35;;;;;;;;;10.80;9.00;;;;;23.36;35.60;98894.59;6022595;29;96582;-72
2022/05/17 06:23:38;;;;;;;;;10.00;9.00;;;;;23.50;34.97;98887.19;6048124;28;97461;-72
2022/05/17 06:26:41;;;;;;;;;9.40;9.40;;;;;23.44;34.71;98889.19;6069420;28;96533;-73
2022/05/17 06:29:46;;;;;;;;;9.00;8.00;;;;;23.45;34.88;98887.28;6069364;28;96481;-72
2022/05/17 06:32:49;;;;;;;;;9.00;8.00;;;;;23.35;34.91;98896.53;6036257;28;98546;-72
2022/05/17 06:35:53;;;;;;;;;10.00;10.00;;;;;23.28;35.19;98888.66;6048766;28;97502;-72
2022/05/17 06:38:56;;;;;;;;;10.40;9.00;;;;;23.26;35.48;98888.13;6045611;28;97557;-72
2022/05/17 06:42:00;;;;;;;;;8.00;8.00;;;;;23.35;35.46;98882.75;6028772;28;96542;-72
2022/05/17 06:45:09;;;;;;;;;9.20;8.00;;;;;23.39;35.52;98872.78;6038044;28;97801;-73
2022/05/17 06:48:12;;;;;;;;;9.40;8.40;;;;;23.36;35.67;98878.88;6067334;28;97512;-72
2022/05/17 06:51:17;;;;;;;;;8.00;7.50;;;;;23.42;35.54;98879.59;6068877;28;96475;-73
2022/05/17 06:54:20;;;;;;;;;8.80;8.00;;;;;23.35;35.38;98877.25;6035824;28;97933;-72
2022/05/17 06:57:24;;;;;;;;;9.00;8.40;;;;;23.47;35.59;98872.09;6067516;28;97556;-72
2022/05/17 07:00:29;;;;;;;;;9.00;8.00;;;;;23.55;35.56;98884.31;6068686;28;97493;-72
2022/05/17 07:03:32;;;;;;;;;8.25;8.00;;;;;23.55;35.01;98881.56;6035571;28;99667;-72
2022/05/17 07:06:36;;;;;;;;;8.00;8.00;;;;;23.69;35.47;98872.19;6065806;28;96770;-73
2022/05/17 07:09:39;;;;;;;;;8.00;8.00;;;;;23.83;35.55;98876.84;6068228;28;96464;-72
2022/05/17 07:16:05;;;;;;;;;9.00;9.00;;;;;24.21;35.02;98871.88;6068289;28;96510;-73
2022/05/17 07:19:09;;;;;;;;;10.00;9.00;;;;;24.33;34.37;98869.41;6068572;28;96860;-72
2022/05/17 07:22:32;;;;;;;;;9.00;8.00;;;;;24.60;35.51;98878.34;6068670;28;97512;-74
2022/05/17 07:25:36;;;;;;;;;7.00;7.00;;;;;24.81;33.34;98878.66;6068038;28;97530;-72
2022/05/17 07:28:42;;;;;;;;;10.00;9.00;;;;;24.94;33.92;98874.22;6051403;28;96413;-73
2022/05/17 07:31:47;;;;;;;;;9.25;8.25;;;;;24.82;32.51;98882.22;6050572;28;96508;-72
2022/05/17 07:34:50;;;;;;;;;9.25;8.00;;;;;24.89;33.75;98875.16;6068086;28;97991;-72
2022/05/17 07:37:54;;;;;;;;;10.00;8.75;;;;;25.03;33.48;98875.06;6047156;28;97423;-72
2022/05/17 07:40:57;;;;;;;;;10.00;8.00;;;;;25.25;33.08;98874.22;6044116;28;98093;-73
2022/05/17 07:44:00;;;;;;;;;8.75;8.00;;;;;25.40;32.38;98873.78;6043355;28;97461;-73
2022/05/17 07:47:06;;;;;;;;;9.50;8.00;;;;;25.41;32.43;98864.38;6027978;28;97782;-73
2022/05/17 07:50:11;;;;;;;;;7.00;7.00;;;;;25.62;32.54;98870.97;6026851;28;96938;-72
2022/05/17 07:53:17;;;;;;;;;10.00;8.00;;;;;25.94;32.70;98880.78;6026135;28;99221;-73
2022/05/17 07:56:21;;;;;;;;;8.00;7.20;;;;;26.32;32.71;98882.97;6023835;28;98291;-72
2022/05/17 07:59:28;;;;;;;;;7.80;6.20;;;;;26.61;32.05;98878.38;6043633;28;96429;-72
2022/05/17 08:02:33;;;;;;;;;7.00;6.00;;;;;26.79;31.41;98870.88;6026738;28;97901;-72
2022/05/17 08:05:37;;;;;;;;;9.00;8.00;;;;;27.22;31.39;98869.97;6026942;28;98097;-72
2022/05/17 08:08:41;;;;;;;;;7.00;6.25;;;;;27.25;30.41;98847.16;6026537;28;98596;-68
2022/05/17 08:11:44;;;;;;;;;7.40;7.00;;;;;27.40;30.78;98857.69;6011075;28;96738;-72
2022/05/17 08:14:48;;;;;;;;;7.00;6.60;;;;;27.66;30.97;98869.44;6043578;28;96459;-71
2022/05/17 08:17:55;;;;;;;;;8.80;7.80;;;;;27.57;30.21;98866.72;6048729;28;96544;-73
2022/05/17 08:20:58;;;;;;;;;7.00;6.00;;;;;27.59;31.02;98874.72;6067397;28;97480;-72
2022/05/17 08:24:07;;;;;;;;;6.00;5.50;;;;;27.33;29.47;98858.19;6049357;28;96709;-72
2022/05/17 08:30:33;;;;;;;;;7.00;6.00;;;;;27.38;30.53;98868.25;6067494;28;96305;-71
2022/05/17 08:33:39;;;;;;;;;5.60;5.00;;;;;27.36;30.03;98873.34;6031445;28;97183;-72
2022/05/17 08:36:42;;;;;;;;;6.00;5.50;;;;;27.26;29.83;98868.16;6053490;28;97529;-72
2022/05/17 08:39:46;;;;;;;;;5.00;4.80;;;;;27.15;29.82;98867.72;6049354;28;99894;-71
2022/05/17 08:43:03;;;;;;;;;5.00;4.00;;;;;27.21;29.73;98865.59;6049460;28;99603;-70
2022/05/17 08:46:25;;;;;;;;;5.00;5.00;;;;;27.37;29.32;98874.94;6043807;28;98301;-71
2022/05/17 08:49:34;;;;;;;;;5.20;4.20;;;;;27.42;28.25;98877.53;6026684;28;96571;-72
2022/05/17 08:52:40;;;;;;;;;5.20;4.00;;;;;27.55;27.67;98871.00;6043248;28;97370;-70
2022/05/17 08:55:44;;;;;;;;;5.00;5.00;;;;;27.95;28.21;98869.44;6043896;28;98114;-72
2022/05/17 08:58:50;;;;;;;;;5.40;5.00;;;;;28.42;27.92;98867.31;6042749;28;97260;-71
2022/05/17 09:02:00;;;;;;;;;5.00;5.00;;;;;28.67;27.21;98870.19;6042791;28;96695;-71
2022/05/17 09:05:15;;;;;;;;;6.00;5.00;;;;;28.44;26.56;98878.88;6042319;28;97425;-71
2022/05/17 09:08:28;;;;;;;;;5.40;5.00;;;;;28.76;27.53;98869.00;6026558;28;97486;-71
2022/05/17 09:11:44;;;;;;;;;4.40;4.00;;;;;29.01;26.75;98880.16;6043156;28;96596;-71
2022/05/17 09:14:51;;;;;;;;;3.00;3.00;;;;;28.86;25.98;98881.63;6043536;28;97860;-72
2022/05/17 09:17:55;;;;;;;;;4.00;4.00;;;;;28.66;26.43;98866.59;6064724;28;97645;-71
2022/05/17 09:21:00;;;;;;;;;4.00;4.00;;;;;28.64;26.79;98873.63;6049573;28;96598;-70
2022/05/17 09:24:07;;;;;;;;;3.40;3.40;;;;;28.61;26.55;98871.56;6048182;28;97317;-70
2022/05/17 09:27:13;;;;;;;;;4.60;4.00;;;;;28.49;26.47;98877.88;6034258;28;96696;-71
2022/05/17 09:30:31;;;;;;;;;3.00;3.00;;;;;28.18;25.96;98869.97;6066829;28;97094;-70
2022/05/17 09:33:34;;;;;;;;;4.00;3.20;;;;;27.85;26.35;98863.50;6067255;28;97471;-71
2022/05/17 09:36:45;;;;;;;;;4.00;3.00;;;;;27.70;26.86;98866.84;6058634;28;96709;-71
2022/05/17 09:39:50;;;;;;;;;4.40;4.40;;;;;27.65;26.55;98859.53;6045605;28;97423;-71
2022/05/17 09:43:02;;;;;;;;;5.00;5.00;;;;;27.28;26.98;98861.16;6029658;28;99661;-70
2022/05/17 09:46:10;;;;;;;;;5.00;4.00;;;;;27.06;26.85;98858.63;6036123;28;96830;-71
2022/05/17 09:53:00;;;;;;;;;5.00;4.40;;;;;27.62;26.97;98870.47;6052857;28;96929;-71
2022/05/17 09:56:07;;;;;;;;;3.00;3.00;;;;;27.84;26.94;98861.88;6064167;28;96549;-70
2022/05/17 09:59:21;;;;;;;;;4.00;3.40;;;;;27.88;25.15;98862.81;6029548;28;98518;-72
2022/05/17 10:02:41;;;;;;;;;2.00;2.00;;;;;28.04;26.32;98849.19;6029172;28;98143;-70
2022/05/17 10:05:47;;;;;;;;;3.25;3.00;;;;;27.98;26.35;98852.16;6047233;28;96491;-71
2022/05/17 10:09:01;;;;;;;;;3.60;3.60;;;;;28.23;26.13;98860.63;6046870;28;96484;-71
2022/05/17 10:12:09;;;;;;;;;3.20;3.20;;;;;28.51;26.29;98858.91;6029261;28;96717;-71
2022/05/17 10:15:14;;;;;;;;;2.00;2.00;;;;;28.59;25.12;98857.22;6029225;28;98124;-71
2022/05/17 10:18:42;;;;;;;;;3.75;3.75;;;;;28.34;25.03;98865.44;6069569;28;97620;-71
2022/05/17 10:21:50;;;;;;;;;3.00;3.00;;;;;28.04;25.83;98855.53;6002825;29;96732;-70
2022/05/17 10:25:02;;;;;;;;;2.00;2.00;;;;;27.90;26.08;98857.75;6031205;28;96935;-70
2022/05/17 10:28:14;;;;;;;;;3.40;3.00;;;;;28.02;26.60;98857.81;6047007;28;97960;-72
2022/05/17 10:31:24;;;;;;;;;4.00;4.00;;;;;28.26;25.74;98849.66;6046158;28;97490;-72
2022/05/17 10:34:39;;;;;;;;;2.00;2.00;;;;;28.58;25.41;98861.97;6046159;28;97536;-71
2022/05/17 10:37:48;;;;;;;;;4.00;3.00;;;;;28.41;24.92;98846.28;6046880;28;98453;-70
2022/05/17 10:40:55;;;;;;;;;5.00;4.00;;;;;28.40;25.83;98852.97;6052721;28;96464;-71
2022/05/17 10:44:00;;;;;;;;;4.00;3.60;;;;;28.63;25.94;98856.19;6067001;28;97019;-72
2022/05/17 10:47:10;;;;;;;;;3.00;3.00;;;;;28.85;24.40;98861.38;6045683;28;97539;-70
2022/05/17 10:50:24;;;;;;;;;4.00;3.00;;;;;29.00;25.06;98870.19;6045779;28;96966;-72
2022/05/17 10:53:51;;;;;;;;;4.00;3.00;;;;;28.80;25.13;98864.38;6041360;28;97552;-71
2022/05/17 10:57:07;;;;;;;;;3.00;3.00;;;;;29.22;25.09;98855.91;6022141;29;97574;-71
2022/05/17 11:00:18;;;;;;;;;2.50;2.50;;;;;29.31;23.82;98842.75;6029111;28;97470;-71
2022/05/17 11:03:53;;;;;;;;;3.00;3.00;;;;;29.40;23.25;98851.78;6044969;28;96405;-69
2022/05/17 11:07:09;;;;;;;;;3.00;3.00;;;;;29.14;23.83;98829.88;6028311;28;99775;-71
2022/05/17 11:10:26;;;;;;;;;4.00;4.00;;;;;29.35;24.20;98842.88;6045999;28;97497;-71
2022/05/17 11:13:39;;;;;;;;;4.00;4.00;;;;;29.48;23.97;98844.47;6045390;28;97577;-71
2022/05/17 11:16:56;;;;;;;;;4.00;3.00;;;;;29.02;23.51;98843.75;6027412;28;97913;-71
2022/05/17 11:20:10;;;;;;;;;2.60;2.60;;;;;29.13;24.84;98844.88;6027681;28;97652;-70
2022/05/17 11:23:36;;;;;;;;;3.60;3.00;;;;;29.11;23.14;98846.41;6044961;28;96394;-70
2022/05/17 11:27:06;;;;;;;;;2.00;2.00;;;;;29.20;24.29;98847.09;6045346;28;97124;-71
2022/05/17 11:30:23;;;;;;;;;4.00;2.40;;;;;28.79;23.14;98826.66;6044746;28;97322;-71
2022/05/17 11:33:32;;;;;;;;;3.00;2.60;;;;;28.87;23.43;98849.94;6028141;28;96643;-70
2022/05/17 11:36:43;;;;;;;;;2.00;2.00;;;;;28.84;23.43;98848.66;6043495;28;96958;-70
2022/05/17 11:39:49;;;;;;;;;2.60;2.00;;;;;29.08;22.72;98847.06;6033373;28;96605;-71
2022/05/17 11:46:56;;;;;;;;;2.00;2.00;;;;;29.66;23.07;98849.44;6044697;28;97599;-71
2022/05/17 11:50:22;;;;;;;;;1.00;1.00;;;;;29.83;21.89;98851.19;6011628;28;98954;-72
2022/05/17 11:53:43;;;;;;;;;2.00;2.00;;;;;29.67;21.64;98848.28;6001100;28;96740;-71
2022/05/17 11:56:46;;;;;;;;;3.00;3.00;;;;;29.80;22.14;98851.88;6044367;28;97063;-71
2022/05/17 11:59:55;;;;;;;;;3.00;3.00;;;;;29.78;22.10;98847.81;6027438;28;97440;-71
2022/05/17 12:03:02;;;;;;;;;2.50;2.50;;;;;30.33;22.33;98850.75;6044319;28;96989;-71
2022/05/17 12:06:10;;;;;;;;;4.00;3.00;;;;;30.78;20.82;98847.69;6044248;28;96449;-73
2022/05/17 12:09:30;;;;;;;;;3.00;2.60;;;;;30.96;20.60;98851.75;6043474;28;96959;-73
2022/05/17 12:12:58;;;;;;;;;3.00;3.00;;;;;31.16;20.29;98851.91;6043521;28;97565;-72
2022/05/17 12:16:02;;;;;;;;;2.00;2.00;;;;;30.66;19.26;98855.28;6027091;28;96861;-71
2022/05/17 12:19:14;;;;;;;;;3.00;2.40;;;;;30.38;20.60;98863.59;6044286;28;97181;-71
2022/05/17 12:22:22;;;;;;;;;3.00;3.00;;;;;30.26;20.54;98861.66;6043934;28;97542;-71
2022/05/17 12:25:34;;;;;;;;;3.00;2.60;;;;;30.15;20.32;98857.78;6011270;28;98127;-70
2022/05/17 12:30:53;;;;;;;;;4.00;4.00;;;;;30.00;20.50;98864.88;6011245;28;96823;-71
2022/05/17 12:32:21;;;;;;;;;3.00;2.00;;;;;29.73;20.65;98873.88;6025890;28;98292;-69
2022/05/17 12:35:28;;;;;;;;;1.75;1.75;;;;;29.58;20.86;98877.34;6042937;28;97298;-70
2022/05/17 12:45:24;;;;;;;;;2.00;2.00;;;;;28.85;21.62;98882.78;6043659;28;96508;-72
2022/05/17 12:48:37;;;;;;;;;2.00;2.00;;;;;28.71;21.45;98885.00;6044223;28;96926;-71
2022/05/17 12:51:44;;;;;;;;;3.00;3.00;;;;;28.48;21.97;98887.34;6043495;28;97471;-72
2022/05/17 12:54:51;;;;;;;;;3.00;3.00;;;;;28.21;22.12;98882.31;6043865;28;96986;-70
2022/05/17 12:57:55;;;;;;;;;3.00;2.00;;;;;27.97;22.62;98889.31;6026295;28;98509;-70
2022/05/17 13:01:00;;;;;;;;;3.00;3.00;;;;;27.82;22.31;98883.53;6026021;28;97424;-70
2022/05/17 13:04:09;;;;;;;;;2.60;2.00;;;;;27.66;22.61;98893.59;6026132;28;97429;-70
2022/05/17 13:07:15;;;;;;;;;1.00;1.00;;;;;27.50;22.61;98885.03;6043662;28;96571;-71
2022/05/17 13:10:19;;;;;;;;;4.00;4.00;;;;;27.35;22.54;98880.84;6046515;28;98076;-71
2022/05/17 13:13:24;;;;;;;;;2.20;2.00;;;;;26.88;22.65;98881.97;6030349;28;98593;-71
2022/05/17 13:16:33;;;;;;;;;2.75;2.00;;;;;26.67;23.67;98882.63;6046295;28;97420;-71
2022/05/17 13:19:38;;;;;;;;;3.00;3.00;;;;;26.65;23.60;98884.06;6021779;29;97182;-71
2022/05/17 13:22:44;;;;;;;;;1.40;1.40;;;;;26.60;23.09;98885.06;6038027;28;96682;-72
2022/05/17 13:25:50;;;;;;;;;3.00;3.00;;;;;26.54;24.00;98880.81;6029540;28;97810;-71
2022/05/17 13:28:54;;;;;;;;;2.20;1.60;;;;;26.52;23.57;98887.84;6028412;28;97836;-70
2022/05/17 13:32:03;;;;;;;;;4.00;3.60;;;;;26.51;24.07;98887.00;6027814;28;97518;-71
2022/05/17 13:35:20;;;;;;;;;3.00;3.00;;;;;26.51;24.02;98887.00;6033401;28;97097;-71
2022/05/17 13:38:33;;;;;;;;;4.00;3.00;;;;;26.41;23.38;98890.09;6045058;28;97466;-71
2022/05/17 13:41:40;;;;;;;;;2.00;2.00;;;;;26.30;24.26;98888.78;6041875;28;96720;-71
2022/05/17 13:44:54;;;;;;;;;3.60;3.60;;;;;26.29;23.91;98893.50;6046033;28;97632;-70
2022/05/17 13:47:57;;;;;;;;;2.00;2.00;;;;;26.30;24.24;98891.56;6041497;28;96606;-71
2022/05/17 13:51:12;;;;;;;;;4.00;3.60;;;;;26.20;23.60;98895.44;6043913;28;97543;-73
2022/05/17 13:54:26;;;;;;;;;2.00;2.00;;;;;26.16;24.38;98888.94;6045895;28;96752;-70
2022/05/17 13:57:33;;;;;;;;;3.00;2.00;;;;;26.09;24.21;98885.84;6045175;28;96750;-70
2022/05/17 14:00:40;;;;;;;;;3.00;2.60;;;;;25.96;23.34;98888.72;6027178;28;96904;-71
2022/05/17 14:03:43;;;;;;;;;2.60;2.60;;;;;25.92;24.16;98887.75;6026673;28;96910;-71
2022/05/17 14:06:54;;;;;;;;;2.00;1.40;;;;;25.96;23.85;98892.31;6029638;28;97914;-70
2022/05/17 14:13:44;;;;;;;;;3.20;3.00;;;;;25.84;24.09;98892.97;6044538;28;98452;-70
2022/05/17 14:16:52;;;;;;;;;3.25;3.25;;;;;25.92;24.22;98891.34;6041257;28;96562;-71
2022/05/17 14:19:58;;;;;;;;;2.00;2.00;;;;;26.03;24.32;98884.38;6044494;28;96514;-69
2022/05/17 14:23:01;;;;;;;;;2.00;2.00;;;;;26.07;23.57;98884.53;6028583;28;96556;-70
2022/05/17 14:26:08;;;;;;;;;3.00;2.00;;;;;26.07;23.44;98885.34;6043934;28;97395;-71
2022/05/17 14:29:11;;;;;;;;;3.00;2.00;;;;;26.10;23.60;98875.59;6046256;28;97513;-72
2022/05/17 14:32:15;;;;;;;;;2.00;2.00;;;;;26.14;23.78;98888.47;6041327;28;97445;-71
2022/05/17 14:35:22;;;;;;;;;2.00;2.00;;;;;26.18;24.03;98878.38;6046254;28;97434;-71
2022/05/17 14:38:25;;;;;;;;;3.00;2.00;;;;;26.16;23.35;98894.44;6041406;28;96769;-70
2022/05/17 14:41:30;;;;;;;;;2.00;2.00;;;;;26.16;23.50;98882.59;6027384;28;98477;-70
2022/05/17 14:44:34;;;;;;;;;2.40;2.00;;;;;26.20;23.11;98881.59;6026767;28;96981;-71
2022/05/17 14:47:41;;;;;;;;;1.50;1.50;;;;;26.13;23.72;98863.91;6025342;28;97383;-72
2022/05/17 14:50:44;;;;;;;;;2.00;2.00;;;;;26.29;23.23;98895.50;6028271;28;96935;-71
2022/05/17 14:53:47;;;;;;;;;1.00;1.00;;;;;26.33;23.20;98890.13;6041618;28;98484;-72
2022/05/17 14:57:08;;;;;;;;;3.00;3.00;;;;;26.39;23.49;98886.84;6031180;28;97620;-71
2022/05/17 15:00:19;;;;;;;;;2.60;2.00;;;;;26.16;23.81;98890.88;6006530;28;98357;-72
2022/05/17 15:03:29;;;;;;;;;3.00;2.40;;;;;26.05;24.19;98890.38;6024316;28;97759;-72
2022/05/17 15:06:48;;;;;;;;;2.00;2.00;;;;;25.97;24.58;98880.13;6029303;28;97468;-71